CPX333 Details

Departure: Valley International Airport (KHRL)
Arrival: Austin-Bergstrom International Airport (KAUS)
Route: CRP PCKIT


Current Weather Information
KHRL 212252Z 15012KT 10SM BKN041 33/24 A2958 RMK AO2 SLP016 T03330244
KAUS 212253Z 11004KT 10SM FEW250 31/14 A2965 RMK AO2 SLP028 T03060139